Time;durP1;ratioP1;P1;durP2;ratioP2;P2;SDS_P1;SDS_P2;PMS_P1;PMS_P2;Temp;Humidity;BMP_temperature;BMP_pressure;BME280_temperature;BME280_humidity;BME280_pressure;Samples;Min_cycle;Max_cycle;Signal;HPM_P1;HPM_P2
2023/09/17 00:01:32;;;;;;;2.57;2.37;;;16.50;99.90;;;;;;5024394;28;20451;-84
2023/09/17 00:04:00;;;;;;;1.23;1.23;;;16.40;99.90;;;;;;5028442;28;20451;-90
2023/09/17 00:06:28;;;;;;;1.70;1.60;;;16.40;99.90;;;;;;5034493;28;20454;-84
2023/09/17 00:08:55;;;;;;;2.70;2.50;;;16.30;99.90;;;;;;5037390;28;20774;-85
2023/09/17 00:11:22;;;;;;;1.97;1.27;;;16.30;99.90;;;;;;5023916;28;20446;-81
2023/09/17 00:13:51;;;;;;;1.90;1.80;;;16.40;99.90;;;;;;5027697;28;20485;-83
2023/09/17 00:16:19;;;;;;;2.47;1.20;;;16.40;99.90;;;;;;5022604;28;20451;-88
2023/09/17 00:18:46;;;;;;;2.87;2.60;;;16.50;99.90;;;;;;5030375;28;20461;-81
2023/09/17 00:21:13;;;;;;;0.90;0.90;;;16.30;99.90;;;;;;5031681;28;20678;-84
2023/09/17 00:23:41;;;;;;;1.03;1.03;;;16.30;99.90;;;;;;5021671;28;20604;-88
2023/09/17 00:26:09;;;;;;;1.70;1.57;;;16.30;99.90;;;;;;5033794;28;20508;-87
2023/09/17 00:28:36;;;;;;;1.80;1.70;;;16.20;99.90;;;;;;5034423;28;20462;-83
2023/09/17 00:31:03;;;;;;;1.80;1.70;;;16.30;99.90;;;;;;5231151;22;20518;-86
2023/09/17 00:33:30;;;;;;;0.77;0.77;;;16.20;99.90;;;;;;5296000;23;20761;-85
2023/09/17 00:35:59;;;;;;;2.17;1.97;;;16.10;99.90;;;;;;5024054;28;20542;-85
2023/09/17 00:41:01;;;;;;;1.73;1.57;;;16.00;99.90;;;;;;5046392;28;20472;-86
2023/09/17 00:43:30;;;;;;;4.70;2.40;;;16.00;99.90;;;;;;5052746;28;20434;-85
2023/09/17 00:45:57;;;;;;;1.30;1.10;;;16.10;99.90;;;;;;5048728;28;20454;-86
2023/09/17 00:48:27;;;;;;;1.57;1.47;;;16.20;99.90;;;;;;5049425;28;20451;-84
2023/09/17 00:50:55;;;;;;;1.80;1.70;;;16.10;99.90;;;;;;5171204;22;20506;-80
2023/09/17 00:53:26;;;;;;;4.17;2.43;;;16.00;99.90;;;;;;5029170;28;20489;-80
2023/09/17 00:55:54;;;;;;;2.67;2.57;;;16.10;99.90;;;;;;5013160;28;20467;-88
2023/09/17 00:58:22;;;;;;;2.30;2.13;;;16.10;99.90;;;;;;5019648;28;20510;-89
2023/09/17 01:00:53;;;;;;;0.80;0.80;;;16.00;99.90;;;;;;5022708;28;20440;-86
2023/09/17 01:03:20;;;;;;;3.50;3.20;;;16.00;99.90;;;;;;5016097;28;20443;-88
2023/09/17 01:05:57;;;;;;;3.03;2.83;;;16.10;99.90;;;;;;5035592;28;20742;-85
2023/09/17 01:08:25;;;;;;;1.20;1.20;;;16.30;99.90;;;;;;5038659;28;20426;-86
2023/09/17 01:10:58;;;;;;;2.40;1.57;;;16.10;99.90;;;;;;5030435;28;20497;-89
2023/09/17 01:13:26;;;;;;;2.50;2.40;;;16.10;99.90;;;;;;5025483;28;20512;-86
2023/09/17 01:15:53;;;;;;;1.70;1.60;;;16.10;99.90;;;;;;5091410;22;20528;-87
2023/09/17 01:24:13;;;;;;;3.27;3.13;;;15.90;99.90;;;;;;5512844;22;20563;-86
2023/09/17 01:31:50;;;;;;;0.83;0.83;;;15.60;99.90;;;;;;5294304;23;20485;-86
2023/09/17 01:42:27;;;;;;;2.60;2.17;;;15.50;99.90;;;;;;5394353;22;20721;-86
2023/09/17 01:44:58;;;;;;;3.37;2.43;;;15.40;99.90;;;;;;5001984;28;20682;-88
2023/09/17 01:47:27;;;;;;;2.30;2.20;;;15.30;99.90;;;;;;4999221;28;20437;-89
2023/09/17 01:49:58;;;;;;;1.10;1.10;;;15.30;99.90;;;;;;5573867;23;20846;-88
2023/09/17 01:52:26;;;;;;;1.93;1.83;;;15.30;99.90;;;;;;5126826;22;20586;-90
2023/09/17 01:54:53;;;;;;;3.60;3.30;;;15.30;99.90;;;;;;5850758;23;20461;-88
2023/09/17 01:57:21;;;;;;;1.10;1.10;;;15.20;99.90;;;;;;5035246;28;20439;-86
2023/09/17 01:59:47;;;;;;;2.93;2.10;;;15.20;99.90;;;;;;5032856;28;20443;-89
2023/09/17 02:02:14;;;;;;;2.97;1.90;;;15.00;99.90;;;;;;5031321;22;20549;-91
2023/09/17 02:04:41;;;;;;;4.10;1.57;;;15.10;99.90;;;;;;5018725;28;20446;-90
2023/09/17 02:07:09;;;;;;;0.97;0.97;;;15.00;99.90;;;;;;5021226;28;20434;-89
2023/09/17 02:09:40;;;;;;;0.77;0.77;;;15.10;99.90;;;;;;5163433;23;21063;-91
2023/09/17 02:14:49;;;;;;;2.07;1.97;;;15.10;99.90;;;;;;5330552;23;20501;-88
2023/09/17 02:17:18;;;;;;;1.57;1.47;;;15.10;99.90;;;;;;5027493;28;20446;-90
2023/09/17 02:19:46;;;;;;;0.60;0.60;;;15.10;99.90;;;;;;5276859;22;20498;-87
2023/09/17 02:24:46;;;;;;;0.73;0.73;;;15.00;99.90;;;;;;5013880;28;20547;-85
2023/09/17 02:27:15;;;;;;;3.30;2.00;;;15.10;99.90;;;;;;5119289;22;20496;-86
2023/09/17 02:29:42;;;;;;;1.47;1.47;;;14.90;99.90;;;;;;5027801;28;20451;-86
2023/09/17 02:32:10;;;;;;;0.77;0.77;;;15.00;99.90;;;;;;5029582;28;20496;-87
2023/09/17 02:34:38;;;;;;;1.87;1.77;;;15.00;99.90;;;;;;5036265;28;20489;-88
2023/09/17 02:37:08;;;;;;;1.67;1.57;;;15.00;99.90;;;;;;5029314;28;20692;-89
2023/09/17 02:39:37;;;;;;;4.33;4.03;;;14.90;99.90;;;;;;5087159;22;20438;-87
2023/09/17 02:42:04;;;;;;;1.00;1.00;;;15.00;99.90;;;;;;5025783;28;20616;-87
2023/09/17 02:44:31;;;;;;;1.50;1.40;;;15.00;99.90;;;;;;5189627;22;20474;-84
2023/09/17 02:46:58;;;;;;;1.03;1.03;;;15.10;99.90;;;;;;5025112;28;20512;-88
2023/09/17 02:49:30;;;;;;;2.20;2.07;;;14.90;99.90;;;;;;5078808;22;20851;-88
2023/09/17 02:51:58;;;;;;;2.23;2.10;;;14.90;99.90;;;;;;5083208;23;20508;-85
2023/09/17 02:54:25;;;;;;;1.27;1.17;;;14.90;99.90;;;;;;5039842;28;20482;-87
2023/09/17 02:56:53;;;;;;;0.73;0.73;;;15.00;99.90;;;;;;5021532;28;20539;-85
2023/09/17 02:59:20;;;;;;;1.00;1.00;;;15.00;99.90;;;;;;5226316;22;20930;-84
2023/09/17 03:04:29;;;;;;;2.17;2.07;;;15.00;99.90;;;;;;5097230;22;20490;-89
2023/09/17 03:07:00;;;;;;;2.77;2.60;;;14.90;99.90;;;;;;5115286;23;20473;-87
2023/09/17 03:09:30;;;;;;;1.90;1.80;;;14.90;99.90;;;;;;5113592;23;20489;-90
2023/09/17 03:11:57;;;;;;;3.07;2.77;;;14.90;99.90;;;;;;5106162;23;20612;-86
2023/09/17 03:14:25;;;;;;;4.53;4.20;;;14.90;99.90;;;;;;5226247;23;20483;-84
2023/09/17 03:17:05;;;;;;;3.20;3.00;;;14.80;99.90;;;;;;5170913;23;20543;-86
2023/09/17 03:19:32;;;;;;;1.70;1.60;;;14.70;99.90;;;;;;5038022;28;20457;-85
2023/09/17 03:22:01;;;;;;;1.90;1.80;;;14.90;99.90;;;;;;5221184;22;20474;-88
2023/09/17 03:24:30;;;;;;;0.83;0.83;;;15.00;99.90;;;;;;5036562;28;20447;-88
2023/09/17 03:26:58;;;;;;;1.43;1.33;;;14.80;99.90;;;;;;5183726;22;20486;-87
2023/09/17 03:32:05;;;;;;;1.80;1.70;;;14.80;99.90;;;;;;5221668;22;20478;-83
2023/09/17 03:34:33;;;;;;;2.70;2.60;;;14.90;99.90;;;;;;5448206;23;20508;-87
2023/09/17 03:39:46;;;;;;;3.13;2.90;;;14.90;99.90;;;;;;5388340;22;20521;-87
2023/09/17 03:45:05;;;;;;;3.03;2.93;;;14.90;99.90;;;;;;5210287;22;20502;-86
2023/09/17 03:47:47;;;;;;;1.60;1.50;;;14.80;99.90;;;;;;5153926;22;20491;-89
2023/09/17 03:50:19;;;;;;;1.33;0.90;;;14.90;99.90;;;;;;5208689;22;20506;-85
2023/09/17 03:52:52;;;;;;;0.63;0.63;;;14.80;99.90;;;;;;5024647;28;20515;-89
2023/09/17 03:55:20;;;;;;;1.87;1.77;;;14.60;99.90;;;;;;5035737;28;20481;-87
2023/09/17 03:57:48;;;;;;;1.70;1.67;;;14.60;99.90;;;;;;5026015;28;20447;-84
2023/09/17 04:00:18;;;;;;;3.00;1.53;;;14.50;99.90;;;;;;5022330;28;20447;-85
2023/09/17 04:02:45;;;;;;;1.27;1.17;;;14.60;99.90;;;;;;5031274;28;20782;-84
2023/09/17 04:05:16;;;;;;;2.30;2.20;;;14.40;99.90;;;;;;5027936;28;20500;-87
2023/09/17 04:07:46;;;;;;;3.20;2.10;;;14.50;99.90;;;;;;5025992;28;20441;-89
2023/09/17 04:10:17;;;;;;;2.20;1.63;;;14.40;99.90;;;;;;5033819;28;20497;-84
2023/09/17 04:12:45;;;;;;;1.53;1.43;;;14.40;99.90;;;;;;5032177;28;20508;-85
2023/09/17 04:15:16;;;;;;;3.10;2.20;;;14.40;99.90;;;;;;5023414;28;20502;-85
2023/09/17 04:17:44;;;;;;;1.07;1.07;;;14.50;99.90;;;;;;5033197;28;20438;-87
2023/09/17 04:20:14;;;;;;;1.50;1.37;;;14.50;99.90;;;;;;5025529;28;20478;-85
2023/09/17 04:22:42;;;;;;;3.90;2.10;;;14.40;99.90;;;;;;5024200;28;20451;-87
2023/09/17 04:25:12;;;;;;;2.70;2.60;;;14.40;99.90;;;;;;5031560;28;20501;-87
2023/09/17 04:27:41;;;;;;;3.13;2.43;;;14.40;99.90;;;;;;5025255;28;20458;-85
2023/09/17 04:30:09;;;;;;;1.60;1.57;;;14.30;99.90;;;;;;5027518;28;20499;-85
2023/09/17 04:32:43;;;;;;;1.90;1.80;;;14.40;99.90;;;;;;5233331;22;20482;-85
2023/09/17 04:35:15;;;;;;;1.17;1.17;;;14.30;99.90;;;;;;5051436;28;20488;-89
2023/09/17 04:37:42;;;;;;;3.03;2.80;;;14.40;99.90;;;;;;5099038;22;20524;-85
2023/09/17 04:40:11;;;;;;;2.20;1.43;;;14.40;99.90;;;;;;5109618;22;20493;-88
2023/09/17 04:42:40;;;;;;;4.93;2.13;;;14.30;99.90;;;;;;5113463;22;20491;-87
2023/09/17 04:45:08;;;;;;;2.17;2.07;;;14.40;99.90;;;;;;5028445;28;20434;-84
2023/09/17 04:47:41;;;;;;;1.60;1.50;;;14.40;99.90;;;;;;5176652;22;20485;-83
2023/09/17 04:57:52;;;;;;;1.20;1.20;;;14.50;99.90;;;;;;5489230;22;20499;-88
2023/09/17 05:00:20;;;;;;;1.10;1.10;;;14.70;99.90;;;;;;5924963;22;21418;-88
2023/09/17 05:05:30;;;;;;;1.43;1.33;;;14.70;99.90;;;;;;5050670;23;20481;-83
2023/09/17 05:10:28;;;;;;;1.33;1.27;;;15.00;99.90;;;;;;5183689;22;20494;-91
2023/09/17 05:13:00;;;;;;;2.10;2.00;;;15.00;99.90;;;;;;5107010;22;20491;-88
2023/09/17 05:17:58;;;;;;;2.33;2.23;;;15.20;99.90;;;;;;5074840;22;20484;-87
2023/09/17 05:20:25;;;;;;;1.20;1.10;;;15.40;99.90;;;;;;5359953;22;20541;-82
2023/09/17 05:22:55;;;;;;;2.17;2.03;;;15.50;99.90;;;;;;5014588;28;20440;-86
2023/09/17 05:25:22;;;;;;;2.00;1.90;;;15.70;99.90;;;;;;5068675;23;20566;-85
2023/09/17 05:27:50;;;;;;;9.18;8.18;;;15.80;99.90;;;;;;5003468;28;20441;-88
2023/09/17 05:30:17;;;;;;;1.27;1.17;;;15.90;99.90;;;;;;5000388;28;20207;-88
2023/09/17 05:32:43;;;;;;;0.77;0.77;;;16.00;99.90;;;;;;5008078;28;20706;-87
2023/09/17 05:35:21;;;;;;;0.70;0.70;;;16.30;99.90;;;;;;5006055;28;20469;-87
2023/09/17 05:37:48;;;;;;;0.63;0.63;;;16.50;99.90;;;;;;5091761;23;20457;-85
2023/09/17 05:40:15;;;;;;;1.57;1.47;;;16.60;99.90;;;;;;4984911;28;20451;-85
2023/09/17 05:42:43;;;;;;;2.40;2.30;;;16.90;99.90;;;;;;5026570;23;20502;-84
2023/09/17 05:45:14;;;;;;;0.60;0.60;;;17.10;99.90;;;;;;5385820;23;20501;-84
2023/09/17 05:47:42;;;;;;;0.50;0.50;;;17.40;99.90;;;;;;4998252;28;20482;-85
2023/09/17 05:50:18;;;;;;;1.83;1.73;;;17.50;99.90;;;;;;5064855;23;20542;-84
2023/09/17 05:52:44;;;;;;;1.03;0.90;;;17.50;99.90;;;;;;5175715;23;20487;-87
2023/09/17 05:55:14;;;;;;;1.60;1.50;;;17.70;99.90;;;;;;5008755;28;20471;-85
2023/09/17 05:57:42;;;;;;;0.80;0.80;;;17.90;99.90;;;;;;5010462;28;20452;-86
2023/09/17 06:02:44;;;;;;;1.00;1.00;;;18.10;99.90;;;;;;5017169;23;20495;-84
2023/09/17 06:05:12;;;;;;;1.07;1.07;;;18.20;99.90;;;;;;5004819;28;20447;-86
2023/09/17 06:07:38;;;;;;;0.80;0.80;;;18.40;99.90;;;;;;5259405;23;20534;-87
2023/09/17 06:10:06;;;;;;;1.90;1.43;;;18.20;99.90;;;;;;5221340;23;20720;-85
2023/09/17 06:12:33;;;;;;;1.13;1.10;;;18.40;99.90;;;;;;5398333;23;20533;-86
2023/09/17 06:15:00;;;;;;;7.60;3.10;;;18.50;99.90;;;;;;5102216;23;20546;-81
2023/09/17 06:17:27;;;;;;;1.00;0.90;;;18.80;99.90;;;;;;5223598;23;21673;-90
2023/09/17 06:19:56;;;;;;;0.60;0.60;;;18.70;99.90;;;;;;5196755;23;20641;-87
2023/09/17 06:22:25;;;;;;;4.90;2.70;;;18.80;99.90;;;;;;5056587;23;20581;-89
2023/09/17 06:27:30;;;;;;;5.50;5.13;;;19.40;99.90;;;;;;5231575;23;20533;-87
2023/09/17 06:32:26;;;;;;;0.53;0.53;;;19.50;99.90;;;;;;5019466;28;20534;-89
2023/09/17 06:34:55;;;;;;;0.70;0.70;;;19.50;99.90;;;;;;5119949;22;21121;-87
2023/09/17 06:39:57;;;;;;;0.93;0.93;;;20.60;99.90;;;;;;5214423;22;20542;-85
2023/09/17 06:42:25;;;;;;;0.60;0.60;;;21.00;99.90;;;;;;5024559;28;20431;-86
2023/09/17 06:44:51;;;;;;;1.70;1.53;;;21.20;99.90;;;;;;5221431;22;20482;-88
2023/09/17 06:47:18;;;;;;;0.63;0.63;;;21.90;99.90;;;;;;5033292;28;20635;-89
2023/09/17 06:49:46;;;;;;;0.90;0.90;;;22.30;99.90;;;;;;5029150;28;20530;-83
2023/09/17 06:52:12;;;;;;;1.00;1.00;;;22.80;99.90;;;;;;5026604;28;20430;-89
2023/09/17 06:54:39;;;;;;;0.80;0.80;;;23.10;99.90;;;;;;5291186;22;1620562;-86
2023/09/17 06:57:07;;;;;;;1.43;1.17;;;23.80;99.90;;;;;;5029291;28;20296;-83
2023/09/17 06:59:34;;;;;;;4.77;2.60;;;24.00;99.90;;;;;;5038057;28;20420;-86
2023/09/17 07:02:02;;;;;;;0.90;0.90;;;24.20;99.90;;;;;;5065147;22;20508;-87
2023/09/17 07:07:15;;;;;;;1.20;1.20;;;24.70;99.90;;;;;;6023438;23;20393;-86
2023/09/17 07:09:43;;;;;;;1.00;1.00;;;26.00;99.90;;;;;;5267397;22;20562;-87
2023/09/17 07:12:09;;;;;;;2.17;2.07;;;26.30;99.90;;;;;;5474642;22;21343;-83
2023/09/17 07:14:36;;;;;;;1.57;1.47;;;26.50;99.90;;;;;;5033493;28;20487;-87
2023/09/17 07:17:03;;;;;;;1.60;1.50;;;26.60;99.90;;;;;;5066816;22;20468;-85
2023/09/17 07:19:48;;;;;;;0.80;0.80;;;27.00;99.90;;;;;;5469894;22;20740;-88
2023/09/17 07:22:15;;;;;;;2.33;2.17;;;27.80;99.90;;;;;;5163144;23;20631;-88
2023/09/17 07:24:42;;;;;;;1.63;1.53;;;28.00;99.50;;;;;;5109764;22;20581;-85
2023/09/17 07:37:51;;;;;;;0.90;0.90;;;27.60;99.20;;;;;;6165807;22;1223895;-82
2023/09/17 07:40:18;;;;;;;109.33;4.13;;;28.50;96.20;;;;;;6206520;23;20477;-84
2023/09/17 07:42:45;;;;;;;2.50;2.37;;;28.30;96.40;;;;;;6204710;23;20427;-87
2023/09/17 07:45:13;;;;;;;0.90;0.90;;;28.40;97.50;;;;;;6158979;23;20449;-85
2023/09/17 07:47:42;;;;;;;1.53;1.43;;;28.50;96.90;;;;;;6193298;22;20443;-87
2023/09/17 07:50:14;;;;;;;1.30;1.20;;;28.60;95.50;;;;;;6217790;22;20451;-88
2023/09/17 07:52:45;;;;;;;0.80;0.80;;;28.30;95.60;;;;;;6184474;23;20856;-86
2023/09/17 07:57:56;;;;;;;0.80;0.80;;;29.00;95.90;;;;;;6238119;22;20447;-85
2023/09/17 08:00:24;;;;;;;1.10;1.10;;;29.20;95.00;;;;;;6214650;22;20446;-88
2023/09/17 08:02:51;;;;;;;1.07;1.07;;;30.20;93.60;;;;;;6236908;23;20396;-86
2023/09/17 08:05:19;;;;;;;1.27;1.27;;;29.90;92.40;;;;;;6197326;22;20581;-86
2023/09/17 08:07:46;;;;;;;1.57;1.47;;;29.80;92.60;;;;;;6188890;23;20454;-85
2023/09/17 08:10:13;;;;;;;3.57;2.30;;;29.60;91.30;;;;;;6232798;23;20371;-88
2023/09/17 08:12:40;;;;;;;1.30;1.30;;;29.40;92.20;;;;;;6211483;23;20409;-84
2023/09/17 08:17:40;;;;;;;1.33;1.20;;;29.50;92.10;;;;;;6173513;23;20435;-89
2023/09/17 08:20:09;;;;;;;0.80;0.80;;;29.50;92.10;;;;;;6238489;23;20377;-84
2023/09/17 08:22:38;;;;;;;0.87;0.87;;;29.60;91.50;;;;;;6211217;22;20509;-85
2023/09/17 08:25:08;;;;;;;2.60;2.13;;;30.20;90.70;;;;;;6207718;22;20448;-87
2023/09/17 08:30:22;;;;;;;1.53;1.43;;;31.00;87.50;;;;;;6183859;22;20451;-87
2023/09/17 08:32:52;;;;;;;1.47;1.37;;;31.60;85.40;;;;;;6239410;23;20905;-85
2023/09/17 08:35:21;;;;;;;1.57;1.47;;;30.60;86.40;;;;;;6223991;22;20456;-87
2023/09/17 08:37:49;;;;;;;0.87;0.87;;;30.20;84.90;;;;;;6236695;22;20430;-89
2023/09/17 08:40:23;;;;;;;1.30;1.20;;;29.70;87.10;;;;;;6179074;22;20655;-86
2023/09/17 08:42:50;;;;;;;0.80;0.80;;;30.20;88.50;;;;;;6229255;23;20387;-85
2023/09/17 08:45:20;;;;;;;1.00;1.00;;;30.40;85.80;;;;;;6228626;22;20388;-88
2023/09/17 08:47:52;;;;;;;0.90;0.90;;;30.30;88.40;;;;;;6208514;23;20392;-86
2023/09/17 08:50:30;;;;;;;0.90;0.90;;;31.10;86.20;;;;;;6167247;23;20623;-87
2023/09/17 08:53:10;;;;;;;0.80;0.80;;;31.00;83.10;;;;;;6162790;23;20535;-86
2023/09/17 08:55:42;;;;;;;1.57;1.47;;;30.40;84.10;;;;;;6213741;23;20448;-82
2023/09/17 08:58:19;;;;;;;1.20;1.20;;;30.30;83.50;;;;;;6194659;22;20459;-85
2023/09/17 09:03:33;;;;;;;1.47;1.37;;;30.80;86.40;;;;;;6217678;22;20437;-84
2023/09/17 09:06:03;;;;;;;0.93;0.93;;;31.00;84.00;;;;;;6228702;22;20468;-85
2023/09/17 09:16:32;;;;;;;1.50;1.40;;;30.90;85.40;;;;;;6179970;22;20458;-85
2023/09/17 09:24:28;;;;;;;0.90;0.90;;;29.80;86.90;;;;;;6171510;22;21871;-83
2023/09/17 09:26:58;;;;;;;1.03;1.03;;;29.40;87.50;;;;;;6167914;23;20493;-82
2023/09/17 09:29:25;;;;;;;1.33;1.13;;;28.70;87.80;;;;;;6169036;23;20389;-87
2023/09/17 09:34:41;;;;;;;0.70;0.70;;;28.90;90.20;;;;;;6209639;23;20441;-87
2023/09/17 09:37:11;;;;;;;1.93;1.83;;;28.60;89.70;;;;;;6206860;22;20342;-86
2023/09/17 09:39:38;;;;;;;0.90;0.90;;;28.40;90.90;;;;;;6236376;22;20443;-91
2023/09/17 09:42:06;;;;;;;1.00;1.00;;;28.40;91.60;;;;;;6209815;23;20356;-89
2023/09/17 09:44:36;;;;;;;1.40;1.33;;;28.40;90.80;;;;;;6234272;22;20364;-89
2023/09/17 09:47:04;;;;;;;0.70;0.70;;;28.20;91.50;;;;;;6229757;23;20449;-88
2023/09/17 09:49:50;;;;;;;2.13;1.20;;;27.70;90.70;;;;;;6228136;23;20394;-83
2023/09/17 09:52:17;;;;;;;0.80;0.80;;;27.40;91.10;;;;;;6204389;22;20433;-90
2023/09/17 09:54:46;;;;;;;0.93;0.93;;;27.30;92.30;;;;;;6208077;23;20420;-89
2023/09/17 09:57:18;;;;;;;1.63;1.53;;;27.70;92.20;;;;;;6200490;23;20419;-86
2023/09/17 09:59:51;;;;;;;1.03;1.03;;;27.60;92.10;;;;;;6145348;23;21333;-85
2023/09/17 10:05:04;;;;;;;1.83;1.30;;;27.80;92.00;;;;;;6225800;22;20424;-89
2023/09/17 10:07:32;;;;;;;1.47;1.40;;;27.80;92.30;;;;;;6235922;22;20466;-89
2023/09/17 10:10:04;;;;;;;0.80;0.80;;;27.70;91.80;;;;;;6180331;22;21597;-87
2023/09/17 10:12:31;;;;;;;1.07;1.07;;;27.90;92.80;;;;;;6141893;23;20433;-88
2023/09/17 10:14:58;;;;;;;1.77;1.57;;;27.80;92.30;;;;;;6181168;23;20456;-87
2023/09/17 10:17:25;;;;;;;1.10;1.00;;;27.70;92.30;;;;;;6198071;23;20890;-87
2023/09/17 10:19:53;;;;;;;1.13;1.13;;;27.60;92.30;;;;;;6175679;23;20443;-82
2023/09/17 10:22:21;;;;;;;2.10;1.57;;;27.70;92.60;;;;;;6202159;23;20410;-86
2023/09/17 10:30:14;;;;;;;2.27;2.07;;;27.70;92.40;;;;;;6171832;23;20213;-87
2023/09/17 10:32:42;;;;;;;1.00;1.00;;;27.90;92.20;;;;;;6201921;22;20447;-87
2023/09/17 10:35:11;;;;;;;0.80;0.80;;;27.60;92.50;;;;;;6232483;22;20388;-88
2023/09/17 10:40:14;;;;;;;0.80;0.80;;;27.70;93.40;;;;;;6222324;23;20429;-86
2023/09/17 10:42:42;;;;;;;1.83;1.73;;;27.50;92.30;;;;;;6209777;23;20406;-87
2023/09/17 10:45:13;;;;;;;0.80;0.80;;;27.40;93.50;;;;;;6212071;22;20468;-88
2023/09/17 10:47:47;;;;;;;1.67;1.57;;;27.30;92.90;;;;;;6232057;23;20441;-90
2023/09/17 10:50:15;;;;;;;1.07;1.00;;;27.10;93.70;;;;;;6231915;23;20402;-85
2023/09/17 10:52:42;;;;;;;0.80;0.80;;;27.30;92.80;;;;;;6217766;22;20449;-88
2023/09/17 10:55:11;;;;;;;1.03;1.03;;;27.40;93.00;;;;;;6178686;23;20420;-87
2023/09/17 10:57:46;;;;;;;0.70;0.70;;;27.40;93.10;;;;;;6231259;23;20437;-88
2023/09/17 11:00:17;;;;;;;0.80;0.80;;;27.30;92.20;;;;;;6232525;23;20345;-88
2023/09/17 11:02:53;;;;;;;15.73;2.70;;;27.10;92.90;;;;;;6204935;23;20406;-87
2023/09/17 11:05:24;;;;;;;1.80;1.67;;;27.20;93.00;;;;;;6205676;23;20355;-88
2023/09/17 11:08:00;;;;;;;1.13;1.13;;;27.40;93.00;;;;;;6223199;22;20517;-89
2023/09/17 11:10:27;;;;;;;1.07;1.07;;;27.30;93.30;;;;;;6232494;22;20357;-86
2023/09/17 11:12:59;;;;;;;0.80;0.80;;;27.40;91.90;;;;;;6231702;23;20416;-86
2023/09/17 11:15:26;;;;;;;1.43;1.33;;;27.40;92.90;;;;;;6229186;22;20386;-88
2023/09/17 11:18:00;;;;;;;2.70;2.50;;;27.50;92.20;;;;;;6230972;22;20376;-87
2023/09/17 11:20:31;;;;;;;0.70;0.70;;;27.60;92.10;;;;;;6231871;23;20379;-86
2023/09/17 11:23:02;;;;;;;1.53;1.43;;;27.50;92.00;;;;;;6203055;23;20371;-86
2023/09/17 11:25:37;;;;;;;1.37;1.27;;;27.00;92.50;;;;;;6231380;23;20385;-89
2023/09/17 11:28:12;;;;;;;0.70;0.70;;;27.20;93.60;;;;;;6229170;23;20429;-86
2023/09/17 11:31:02;;;;;;;1.13;1.13;;;27.30;94.00;;;;;;6217361;22;20536;-87
2023/09/17 11:33:31;;;;;;;1.33;1.33;;;27.40;92.80;;;;;;6228572;23;20363;-87
2023/09/17 11:36:00;;;;;;;0.73;0.73;;;26.80;92.30;;;;;;6205523;23;20405;-83
2023/09/17 11:38:30;;;;;;;1.07;1.07;;;26.90;92.50;;;;;;6208974;22;20445;-88
2023/09/17 11:41:14;;;;;;;0.80;0.80;;;27.10;93.60;;;;;;6205353;23;20381;-88
2023/09/17 11:43:47;;;;;;;1.73;1.63;;;27.00;93.50;;;;;;6230792;23;20431;-89
2023/09/17 11:46:15;;;;;;;1.00;1.00;;;27.20;93.70;;;;;;6201842;23;20465;-87
2023/09/17 11:48:44;;;;;;;0.70;0.70;;;26.80;93.80;;;;;;6187994;23;20438;-86
2023/09/17 11:51:23;;;;;;;1.23;1.23;;;26.80;94.50;;;;;;6229489;23;20390;-84
2023/09/17 11:54:05;;;;;;;2.27;1.33;;;26.80;93.70;;;;;;6230555;22;20386;-87
2023/09/17 11:59:16;;;;;;;1.00;1.00;;;26.90;94.00;;;;;;6205969;22;20856;-89
2023/09/17 12:01:55;;;;;;;1.43;1.23;;;27.20;94.40;;;;;;6234108;22;20353;-84
2023/09/17 12:04:27;;;;;;;1.07;1.07;;;27.40;93.40;;;;;;6231884;23;20361;-85
2023/09/17 12:12:19;;;;;;;1.40;1.30;;;27.40;93.00;;;;;;6231456;22;20376;-85
2023/09/17 12:14:48;;;;;;;1.13;1.13;;;27.50;93.00;;;;;;6185799;22;20420;-80
2023/09/17 12:17:18;;;;;;;1.40;1.20;;;27.60;92.30;;;;;;6232235;23;20475;-87
2023/09/17 12:19:57;;;;;;;1.10;1.10;;;27.70;91.50;;;;;;6230183;23;20357;-82
2023/09/17 12:22:26;;;;;;;0.80;0.80;;;27.70;89.70;;;;;;6233236;23;20364;-83
2023/09/17 12:25:19;;;;;;;0.70;0.70;;;27.70;90.40;;;;;;6224253;22;20481;-88
2023/09/17 12:27:51;;;;;;;0.80;0.80;;;27.60;90.90;;;;;;6225838;22;20410;-85
2023/09/17 12:30:18;;;;;;;0.80;0.80;;;27.80;90.80;;;;;;6233613;22;20459;-89
2023/09/17 12:35:15;;;;;;;0.80;0.80;;;27.80;91.00;;;;;;6173061;23;20415;-87
2023/09/17 12:37:42;;;;;;;1.33;1.33;;;27.50;90.80;;;;;;6173106;23;20438;-87
2023/09/17 12:40:13;;;;;;;0.80;0.80;;;27.40;90.90;;;;;;6143554;23;20438;-87
2023/09/17 12:42:40;;;;;;;1.00;1.00;;;27.40;91.70;;;;;;6176401;23;20362;-85
2023/09/17 12:45:19;;;;;;;;;;;;;;;;;;;;;
2023/09/17 12:53:01;;;;;;;1.63;1.53;;;27.40;91.80;;;;;;6202788;22;20445;-86
2023/09/17 12:55:29;;;;;;;1.47;1.40;;;27.30;92.10;;;;;;6238186;22;20397;-86
2023/09/17 12:57:56;;;;;;;1.77;1.13;;;27.30;92.50;;;;;;6203702;22;20428;-87
2023/09/17 13:00:23;;;;;;;0.90;0.90;;;27.30;91.90;;;;;;6201361;23;20431;-85
2023/09/17 13:02:53;;;;;;;1.10;1.10;;;27.50;90.90;;;;;;6234357;23;20387;-86
2023/09/17 13:05:21;;;;;;;1.00;1.00;;;27.20;91.00;;;;;;6225750;23;20696;-87
2023/09/17 13:07:49;;;;;;;0.93;0.93;;;27.40;91.00;;;;;;6227497;23;20408;-85
2023/09/17 13:10:20;;;;;;;0.80;0.80;;;27.30;91.20;;;;;;6202880;23;20417;-88
2023/09/17 13:12:51;;;;;;;0.80;0.80;;;27.20;91.40;;;;;;6174433;22;20426;-90
2023/09/17 13:18:05;;;;;;;;;;;;;;;;;;;;;
2023/09/17 13:20:48;;;;;;;0.70;0.70;;;27.60;91.70;;;;;;6226596;22;20472;-89
2023/09/17 13:28:45;;;;;;;1.20;1.13;;;27.00;91.50;;;;;;6158819;23;20403;-88
2023/09/17 13:31:16;;;;;;;0.80;0.80;;;26.90;91.80;;;;;;6219121;23;20358;-87
2023/09/17 13:33:51;;;;;;;0.70;0.70;;;26.80;92.50;;;;;;6244250;23;20396;-87
2023/09/17 13:36:19;;;;;;;1.17;1.17;;;26.80;91.00;;;;;;6243430;23;20359;-86
2023/09/17 13:39:10;;;;;;;1.73;1.63;;;27.10;90.50;;;;;;6172426;22;20433;-88
2023/09/17 13:41:37;;;;;;;1.00;1.00;;;27.30;89.70;;;;;;6216411;22;20349;-86
2023/09/17 13:44:07;;;;;;;1.37;1.27;;;27.50;87.70;;;;;;6225513;22;20454;-89
2023/09/17 13:46:46;;;;;;;1.00;1.00;;;27.40;87.40;;;;;;6197231;22;20412;-89
2023/09/17 13:54:42;;;;;;;0.80;0.80;;;27.80;87.80;;;;;;6166970;23;20427;-88
2023/09/17 13:57:09;;;;;;;1.23;1.13;;;28.00;87.50;;;;;;6152435;23;20412;-86
2023/09/17 14:04:58;;;;;;;0.80;0.80;;;28.10;86.20;;;;;;6188791;22;20437;-88
2023/09/17 14:07:26;;;;;;;0.80;0.80;;;28.00;85.20;;;;;;6202896;22;20416;-90
2023/09/17 14:09:53;;;;;;;1.53;1.43;;;28.00;84.60;;;;;;6196412;22;20423;-88
2023/09/17 14:12:24;;;;;;;1.00;1.00;;;28.00;81.30;;;;;;6233231;23;20456;-89
2023/09/17 14:14:51;;;;;;;1.17;1.17;;;28.00;81.90;;;;;;6207556;23;20437;-89
2023/09/17 14:17:19;;;;;;;1.20;1.20;;;28.00;82.80;;;;;;6186524;22;20423;31
2023/09/17 14:19:47;;;;;;;0.80;0.80;;;28.00;86.40;;;;;;6137842;23;20710;-89
2023/09/17 14:22:14;;;;;;;1.00;1.00;;;27.90;84.40;;;;;;6227223;23;20693;-88
2023/09/17 14:24:41;;;;;;;0.90;0.90;;;27.90;82.40;;;;;;6179409;22;20499;-86
2023/09/17 14:27:11;;;;;;;0.90;0.90;;;27.80;84.00;;;;;;6139036;23;20763;-87
2023/09/17 14:29:40;;;;;;;1.13;1.13;;;27.80;84.50;;;;;;6142869;23;20428;-90
2023/09/17 14:42:43;;;;;;;0.90;0.90;;;27.10;87.60;;;;;;6169844;22;21013;31
2023/09/17 14:50:35;;;;;;;1.03;1.03;;;26.90;85.70;;;;;;6202378;22;20466;-86
2023/09/17 14:53:02;;;;;;;1.27;1.27;;;27.00;85.20;;;;;;6226467;23;20474;-84
2023/09/17 14:55:29;;;;;;;0.90;0.90;;;26.90;83.90;;;;;;6197355;23;20563;-82
2023/09/17 14:57:58;;;;;;;1.40;1.30;;;26.80;84.20;;;;;;6229465;23;20373;-87
2023/09/17 15:00:26;;;;;;;1.20;1.20;;;26.60;85.50;;;;;;6230444;23;20402;-86
2023/09/17 15:02:53;;;;;;;1.20;1.20;;;26.70;85.90;;;;;;6218115;22;20418;-87
2023/09/17 15:05:20;;;;;;;0.80;0.80;;;26.50;86.00;;;;;;6213424;22;20449;-87
2023/09/17 15:07:48;;;;;;;1.90;1.63;;;26.40;85.80;;;;;;6197208;22;20435;-86
2023/09/17 15:10:15;;;;;;;0.70;0.70;;;26.30;85.80;;;;;;6235971;22;20436;-88
2023/09/17 15:12:45;;;;;;;0.80;0.80;;;26.30;86.50;;;;;;6212345;22;20436;-87
2023/09/17 15:15:12;;;;;;;2.20;2.10;;;26.30;86.30;;;;;;6235250;22;20398;-89
2023/09/17 15:20:23;;;;;;;0.97;0.97;;;26.20;85.40;;;;;;6212430;22;20454;-85
2023/09/17 15:22:50;;;;;;;0.90;0.90;;;26.10;85.50;;;;;;6185190;22;20453;-85
2023/09/17 15:28:02;;;;;;;0.80;0.80;;;25.90;83.60;;;;;;6173234;22;20438;-87
2023/09/17 15:30:28;;;;;;;1.13;1.03;;;25.80;83.70;;;;;;6207570;23;20411;-88
2023/09/17 15:32:58;;;;;;;0.70;0.70;;;25.80;83.90;;;;;;6199093;22;20424;-89
2023/09/17 15:35:26;;;;;;;1.20;1.20;;;25.70;82.20;;;;;;6233155;23;20360;-90
2023/09/17 15:37:56;;;;;;;0.90;0.90;;;25.60;81.80;;;;;;6187756;23;20446;-88
2023/09/17 15:42:59;;;;;;;1.23;1.13;;;25.60;83.10;;;;;;6184374;22;20430;-90
2023/09/17 15:50:42;;;;;;;0.80;0.80;;;25.40;83.10;;;;;;6184145;22;20490;-89
2023/09/17 15:53:11;;;;;;;3.00;1.83;;;25.30;83.70;;;;;;6234866;22;20471;-88
2023/09/17 15:58:15;;;;;;;1.00;1.00;;;25.30;83.80;;;;;;6214843;22;20425;-88
2023/09/17 16:00:42;;;;;;;0.70;0.70;;;25.20;84.20;;;;;;6216676;22;20437;-90